Time;durP1;ratioP1;P1;durP2;ratioP2;P2;SDS_P1;SDS_P2;PMS_P1;PMS_P2;Temp;Humidity;BMP_temperature;BMP_pressure;BME280_temperature;BME280_humidity;BME280_pressure;Samples;Min_cycle;Max_cycle;Signal;HPM_P1;HPM_P2
2023/09/22 00:01:23;;;;;;;;;;;22.20;51.80;;;;;;1518458;78;808;-68
2023/09/22 00:03:26;;;;;;;;;;;22.30;51.90;;;;;;1519160;77;657;-68
2023/09/22 00:05:28;;;;;;;;;;;22.20;51.90;;;;;;1524336;77;730;-68
2023/09/22 00:07:30;;;;;;;;;;;22.30;52.10;;;;;;1525333;77;794;-68
2023/09/22 00:09:32;;;;;;;;;;;22.20;51.90;;;;;;1513939;77;1124;-68
2023/09/22 00:11:36;;;;;;;;;;;22.20;52.00;;;;;;1525359;76;1908;-68
2023/09/22 00:13:37;;;;;;;;;;;22.30;52.30;;;;;;1522379;77;682;-68
2023/09/22 00:15:39;;;;;;;;;;;22.20;52.00;;;;;;1524063;77;668;-68
2023/09/22 00:17:41;;;;;;;;;;;22.30;52.10;;;;;;1521624;76;1166;-67
2023/09/22 00:19:45;;;;;;;;;;;22.30;52.20;;;;;;1524820;77;759;-68
2023/09/22 00:21:47;;;;;;;;;;;22.30;52.20;;;;;;1523452;77;710;-68
2023/09/22 00:23:48;;;;;;;;;;;22.30;52.20;;;;;;1523721;77;748;-68
2023/09/22 00:25:50;;;;;;;;;;;22.30;52.20;;;;;;1521905;77;766;-67
2023/09/22 00:27:52;;;;;;;;;;;22.40;52.20;;;;;;1524660;77;1151;-68
2023/09/22 00:29:54;;;;;;;;;;;22.30;52.20;;;;;;1525593;77;719;-69
2023/09/22 00:31:56;;;;;;;;;;;22.30;52.20;;;;;;1516935;78;1930;-70
2023/09/22 00:33:58;;;;;;;;;;;22.30;52.20;;;;;;1522629;76;1673;-69
2023/09/22 00:36:03;;;;;;;;;;;22.40;52.20;;;;;;1525004;77;804;-68
2023/09/22 00:38:06;;;;;;;;;;;22.40;52.10;;;;;;1519578;77;1138;-69
2023/09/22 00:40:09;;;;;;;;;;;22.40;52.10;;;;;;1522433;78;808;-68
2023/09/22 00:42:11;;;;;;;;;;;22.40;52.10;;;;;;1520765;78;706;-66
2023/09/22 00:44:13;;;;;;;;;;;22.40;52.10;;;;;;1518293;77;728;-68
2023/09/22 00:46:16;;;;;;;;;;;22.40;52.20;;;;;;1514600;76;805;-68
2023/09/22 00:48:20;;;;;;;;;;;22.40;52.20;;;;;;1502445;77;1155;-68
2023/09/22 00:50:22;;;;;;;;;;;22.40;52.20;;;;;;1517568;77;951;-68
2023/09/22 00:52:24;;;;;;;;;;;22.40;52.20;;;;;;1529560;76;1947;-68
2023/09/22 00:54:26;;;;;;;;;;;22.40;52.20;;;;;;1505067;77;710;-69
2023/09/22 00:56:28;;;;;;;;;;;22.40;52.30;;;;;;1498321;78;716;-68
2023/09/22 00:58:30;;;;;;;;;;;22.40;52.30;;;;;;1568910;74;1133;-68
2023/09/22 01:00:32;;;;;;;;;;;22.40;52.30;;;;;;1564701;74;804;-68
2023/09/22 01:02:33;;;;;;;;;;;22.30;52.30;;;;;;1568139;74;731;-68
2023/09/22 01:04:35;;;;;;;;;;;22.40;52.30;;;;;;1568556;74;596;-68
2023/09/22 01:06:37;;;;;;;;;;;22.40;52.40;;;;;;1569307;74;707;-69
2023/09/22 01:08:39;;;;;;;;;;;22.40;52.40;;;;;;1568352;74;1143;-69
2023/09/22 01:10:46;;;;;;;;;;;22.40;52.40;;;;;;1568238;74;686;-68
2023/09/22 01:12:45;;;;;;;;;;;22.40;52.40;;;;;;1565786;74;1918;-69
2023/09/22 01:14:47;;;;;;;;;;;22.40;52.40;;;;;;1564155;74;800;-69
2023/09/22 01:16:51;;;;;;;;;;;22.40;52.50;;;;;;1570879;74;717;-68
2023/09/22 01:18:52;;;;;;;;;;;22.40;52.50;;;;;;1565142;74;1698;-68
2023/09/22 01:20:57;;;;;;;;;;;22.40;52.50;;;;;;1566948;74;794;-68
2023/09/22 01:22:58;;;;;;;;;;;22.30;52.50;;;;;;1571067;74;1534;-68
2023/09/22 01:25:00;;;;;;;;;;;22.40;52.40;;;;;;1570599;74;812;-69
2023/09/22 01:27:03;;;;;;;;;;;22.40;52.50;;;;;;1559336;74;742;-67
2023/09/22 01:29:06;;;;;;;;;;;22.40;52.50;;;;;;1563208;74;1493;-68
2023/09/22 01:31:10;;;;;;;;;;;22.40;52.40;;;;;;1567591;74;747;-66
2023/09/22 01:33:11;;;;;;;;;;;22.40;52.30;;;;;;1569471;74;1923;-68
2023/09/22 01:35:13;;;;;;;;;;;22.40;52.20;;;;;;1569051;74;607;-69
2023/09/22 01:37:15;;;;;;;;;;;22.30;52.30;;;;;;1570100;75;720;-69
2023/09/22 01:39:17;;;;;;;;;;;22.40;52.20;;;;;;1569186;74;1151;-69
2023/09/22 01:41:19;;;;;;;;;;;22.40;52.20;;;;;;1567426;74;660;-69
2023/09/22 01:43:21;;;;;;;;;;;22.40;52.30;;;;;;1569380;74;678;-68
2023/09/22 01:45:23;;;;;;;;;;;22.40;52.30;;;;;;1570577;74;720;-66
2023/09/22 01:47:25;;;;;;;;;;;22.30;52.30;;;;;;1570297;74;786;-68
2023/09/22 01:49:26;;;;;;;;;;;22.40;52.20;;;;;;1569362;74;1108;-67
2023/09/22 01:51:28;;;;;;;;;;;22.40;52.20;;;;;;1566886;74;596;-70
2023/09/22 01:53:30;;;;;;;;;;;22.40;52.20;;;;;;1566223;74;1918;-68
2023/09/22 01:55:32;;;;;;;;;;;22.40;52.10;;;;;;1563567;74;795;-68
2023/09/22 01:57:34;;;;;;;;;;;22.40;52.20;;;;;;1570578;74;751;-67
2023/09/22 01:59:36;;;;;;;;;;;22.40;52.00;;;;;;1569402;74;718;-68
2023/09/22 02:01:38;;;;;;;;;;;22.40;51.90;;;;;;1570174;74;744;-68
2023/09/22 02:03:39;;;;;;;;;;;22.40;51.90;;;;;;1570494;74;812;-68
2023/09/22 02:05:41;;;;;;;;;;;22.40;51.90;;;;;;1571807;74;735;-68
2023/09/22 02:07:43;;;;;;;;;;;22.40;52.00;;;;;;1565579;74;1148;-70
2023/09/22 02:09:46;;;;;;;;;;;22.40;52.10;;;;;;1562448;74;809;-68
2023/09/22 02:11:48;;;;;;;;;;;22.40;52.10;;;;;;1567936;74;703;-68
2023/09/22 02:13:50;;;;;;;;;;;22.40;52.10;;;;;;1564759;74;1914;-68
2023/09/22 02:15:52;;;;;;;;;;;22.40;52.20;;;;;;1570219;74;680;-69
2023/09/22 02:17:54;;;;;;;;;;;22.30;52.30;;;;;;1568675;74;1145;-67
2023/09/22 02:19:56;;;;;;;;;;;22.40;52.20;;;;;;1567161;74;665;-70
2023/09/22 02:21:58;;;;;;;;;;;22.30;52.30;;;;;;1568958;74;936;-69
2023/09/22 02:24:00;;;;;;;;;;;22.40;52.20;;;;;;1562184;74;798;-68
2023/09/22 02:26:06;;;;;;;;;;;22.30;52.20;;;;;;1570784;74;1544;-68
2023/09/22 02:28:08;;;;;;;;;;;22.40;52.30;;;;;;1567015;74;1085;-68
2023/09/22 02:30:10;;;;;;;;;;;22.40;52.20;;;;;;1570479;74;773;-68
2023/09/22 02:32:12;;;;;;;;;;;22.30;52.20;;;;;;1569436;74;803;-68
2023/09/22 02:34:20;;;;;;;;;;;22.40;52.10;;;;;;1568153;74;1954;-69
2023/09/22 02:36:17;;;;;;;;;;;22.30;52.20;;;;;;1566626;74;1735;-68
2023/09/22 02:38:19;;;;;;;;;;;22.40;52.30;;;;;;1564437;74;1197;-70
2023/09/22 02:40:21;;;;;;;;;;;22.40;52.30;;;;;;1570209;74;768;-68
2023/09/22 02:42:23;;;;;;;;;;;22.30;52.30;;;;;;1565881;74;792;-66
2023/09/22 02:44:25;;;;;;;;;;;22.30;52.30;;;;;;1570223;74;637;-67
2023/09/22 02:46:26;;;;;;;;;;;22.30;52.30;;;;;;1565579;74;720;-68
2023/09/22 02:48:28;;;;;;;;;;;22.40;52.20;;;;;;1570546;74;1177;-68
2023/09/22 02:50:30;;;;;;;;;;;22.30;52.30;;;;;;1569608;74;932;-68
2023/09/22 02:52:33;;;;;;;;;;;22.30;52.30;;;;;;1561147;74;716;-68
2023/09/22 02:54:35;;;;;;;;;;;22.30;52.30;;;;;;1567658;74;581;-68
2023/09/22 02:56:37;;;;;;;;;;;22.40;52.30;;;;;;1570450;74;679;-68
2023/09/22 02:58:39;;;;;;;;;;;22.40;52.40;;;;;;1566764;74;1152;-68
2023/09/22 03:00:44;;;;;;;;;;;22.40;52.30;;;;;;1570368;74;681;-69
2023/09/22 03:02:46;;;;;;;;;;;22.40;52.40;;;;;;1562555;75;799;-69
2023/09/22 03:04:48;;;;;;;;;;;22.40;52.50;;;;;;1569926;74;772;-68
2023/09/22 03:06:49;;;;;;;;;;;22.30;52.40;;;;;;1566102;74;741;-68
2023/09/22 03:08:51;;;;;;;;;;;22.30;52.40;;;;;;1572098;74;1141;-68
2023/09/22 03:10:53;;;;;;;;;;;22.30;52.50;;;;;;1568477;74;587;-68
2023/09/22 03:12:55;;;;;;;;;;;22.30;52.40;;;;;;1563204;74;1918;-68
2023/09/22 03:14:57;;;;;;;;;;;22.30;52.40;;;;;;1568724;74;782;-67
2023/09/22 03:17:00;;;;;;;;;;;22.30;52.40;;;;;;1570002;74;731;-68
2023/09/22 03:19:02;;;;;;;;;;;22.40;52.50;;;;;;1570395;74;1120;-69
2023/09/22 03:21:05;;;;;;;;;;;22.40;52.50;;;;;;1569159;75;1472;-69
2023/09/22 03:23:06;;;;;;;;;;;22.30;52.50;;;;;;1569171;74;787;-68
2023/09/22 03:25:09;;;;;;;;;;;22.20;52.40;;;;;;1569851;74;787;-69
2023/09/22 03:27:11;;;;;;;;;;;22.40;52.50;;;;;;1569996;74;743;-69
2023/09/22 03:29:13;;;;;;;;;;;22.40;52.60;;;;;;1568929;74;1145;-68
2023/09/22 03:31:16;;;;;;;;;;;22.30;52.60;;;;;;1569538;74;759;-68
2023/09/22 03:33:18;;;;;;;;;;;22.40;52.60;;;;;;1569973;74;1911;-69
2023/09/22 03:35:21;;;;;;;;;;;22.30;52.60;;;;;;1566280;74;794;-68
2023/09/22 03:37:27;;;;;;;;;;;22.30;52.60;;;;;;1568148;74;749;-68
2023/09/22 03:39:27;;;;;;;;;;;22.40;52.60;;;;;;1578617;74;1618;-69
2023/09/22 03:41:29;;;;;;;;;;;22.40;52.60;;;;;;1567934;74;652;-68
2023/09/22 03:43:31;;;;;;;;;;;22.30;52.70;;;;;;1569785;74;868;-70
2023/09/22 03:45:33;;;;;;;;;;;22.40;52.70;;;;;;1567493;74;745;-68
2023/09/22 03:47:36;;;;;;;;;;;22.30;52.70;;;;;;1570405;74;1145;-65
2023/09/22 03:49:38;;;;;;;;;;;22.40;52.80;;;;;;1561220;74;701;-68
2023/09/22 03:51:40;;;;;;;;;;;22.30;52.80;;;;;;1568005;74;744;-68
2023/09/22 03:53:42;;;;;;;;;;;22.30;52.80;;;;;;1562689;74;1932;-68
2023/09/22 03:55:47;;;;;;;;;;;22.30;52.80;;;;;;1561853;74;754;-69
2023/09/22 03:57:49;;;;;;;;;;;22.30;52.80;;;;;;1568371;74;1122;-68
2023/09/22 03:59:51;;;;;;;;;;;22.40;52.80;;;;;;1567295;74;726;-69
2023/09/22 04:01:54;;;;;;;;;;;22.30;52.80;;;;;;1566362;74;670;-68
2023/09/22 04:03:56;;;;;;;;;;;22.30;52.80;;;;;;1568938;74;731;-68
2023/09/22 04:05:58;;;;;;;;;;;22.30;52.80;;;;;;1567401;74;766;-69
2023/09/22 04:08:00;;;;;;;;;;;22.30;52.80;;;;;;1566027;74;1140;-68
2023/09/22 04:10:03;;;;;;;;;;;22.40;52.90;;;;;;1567356;74;660;-67
2023/09/22 04:12:05;;;;;;;;;;;22.30;52.90;;;;;;1566000;74;699;-67
2023/09/22 04:14:07;;;;;;;;;;;22.40;52.90;;;;;;1565469;74;1926;-68
2023/09/22 04:16:09;;;;;;;;;;;22.40;52.90;;;;;;1568440;74;855;-68
2023/09/22 04:18:11;;;;;;;;;;;22.30;52.90;;;;;;1568481;74;1556;-68
2023/09/22 04:20:16;;;;;;;;;;;22.30;52.80;;;;;;1573679;74;761;-68
2023/09/22 04:22:17;;;;;;;;;;;22.30;52.90;;;;;;1567186;74;1668;-68
2023/09/22 04:24:20;;;;;;;;;;;22.30;52.90;;;;;;1570475;74;773;-69
2023/09/22 04:26:27;;;;;;;;;;;22.30;52.90;;;;;;1566164;74;783;-68
2023/09/22 04:28:25;;;;;;;;;;;22.40;52.90;;;;;;1561379;74;1596;-68
2023/09/22 04:30:27;;;;;;;;;;;22.30;52.90;;;;;;1560433;74;822;-69
2023/09/22 04:32:33;;;;;;;;;;;22.40;52.90;;;;;;1570016;74;786;-65
2023/09/22 04:34:33;;;;;;;;;;;22.30;52.90;;;;;;1567948;74;1930;-68
2023/09/22 04:36:35;;;;;;;;;;;22.30;52.90;;;;;;1569748;74;726;-65
2023/09/22 04:38:38;;;;;;;;;;;22.40;52.90;;;;;;1563490;74;1176;-68
2023/09/22 04:40:40;;;;;;;;;;;22.30;52.90;;;;;;1571986;74;717;-68
2023/09/22 04:42:41;;;;;;;;;;;22.30;53.00;;;;;;1568463;74;747;-68
2023/09/22 04:44:44;;;;;;;;;;;22.20;52.80;;;;;;1529404;76;808;-70
2023/09/22 04:46:46;;;;;;;;;;;22.40;52.90;;;;;;1527800;76;652;-69
2023/09/22 04:48:48;;;;;;;;;;;22.30;52.90;;;;;;1530475;76;1138;-68
2023/09/22 04:50:55;;;;;;;;;;;22.30;52.90;;;;;;1534958;76;678;-68
2023/09/22 04:52:58;;;;;;;;;;;22.30;52.80;;;;;;1528046;76;740;-68
2023/09/22 04:55:00;;;;;;;;;;;22.30;53.00;;;;;;1537401;76;1912;-68
2023/09/22 04:57:02;;;;;;;;;;;22.30;53.00;;;;;;1518467;77;774;-68
2023/09/22 04:59:04;;;;;;;;;;;22.30;53.10;;;;;;1531701;76;1122;-68
2023/09/22 05:01:06;;;;;;;;;;;22.30;53.00;;;;;;1511888;77;792;-68
2023/09/22 05:03:08;;;;;;;;;;;22.30;53.00;;;;;;1518218;77;795;-68
2023/09/22 05:05:10;;;;;;;;;;;22.30;53.00;;;;;;1513055;77;810;-68
2023/09/22 05:07:12;;;;;;;;;;;22.30;53.00;;;;;;1528936;77;743;-67
2023/09/22 05:09:14;;;;;;;;;;;22.30;52.90;;;;;;1531664;76;1162;-67
2023/09/22 05:11:16;;;;;;;;;;;22.30;53.00;;;;;;1532630;76;733;-68
2023/09/22 05:13:18;;;;;;;;;;;22.30;52.80;;;;;;1501210;77;749;-67
2023/09/22 05:15:20;;;;;;;;;;;22.30;52.90;;;;;;1533446;77;1942;-68
2023/09/22 05:17:22;;;;;;;;;;;22.30;52.80;;;;;;1525287;78;909;-68
2023/09/22 05:19:24;;;;;;;;;;;22.30;52.80;;;;;;1524844;78;1166;-67
2023/09/22 05:21:27;;;;;;;;;;;22.30;52.80;;;;;;1523993;77;712;-68
2023/09/22 05:23:34;;;;;;;;;;;22.30;52.80;;;;;;1521989;77;724;-68
2023/09/22 05:25:43;;;;;;;;;;;22.30;52.80;;;;;;1523570;77;698;-67
2023/09/22 05:27:45;;;;;;;;;;;22.30;52.80;;;;;;1517336;76;1155;-67
2023/09/22 05:29:47;;;;;;;;;;;22.30;52.80;;;;;;1525009;78;684;-67
2023/09/22 05:31:49;;;;;;;;;;;22.20;52.60;;;;;;1522328;77;803;-67
2023/09/22 05:33:51;;;;;;;;;;;22.20;52.60;;;;;;1525167;77;1944;-68
2023/09/22 05:35:53;;;;;;;;;;;22.30;52.60;;;;;;1520910;76;671;-68
2023/09/22 05:37:54;;;;;;;;;;;22.20;52.30;;;;;;1523765;77;1179;-68
2023/09/22 05:39:56;;;;;;;;;;;22.20;52.30;;;;;;1522916;77;717;-68
2023/09/22 05:41:58;;;;;;;;;;;22.20;52.40;;;;;;1524738;77;743;-68
2023/09/22 05:44:00;;;;;;;;;;;22.10;52.20;;;;;;1520490;77;726;-68
2023/09/22 05:46:03;;;;;;;;;;;22.20;52.10;;;;;;1518888;77;769;-68
2023/09/22 05:48:07;;;;;;;;;;;22.10;52.00;;;;;;1520243;77;1147;-68
2023/09/22 05:50:11;;;;;;;;;;;22.10;52.10;;;;;;1523766;76;674;-68
2023/09/22 05:52:12;;;;;;;;;;;22.10;52.10;;;;;;1519198;77;729;-68
2023/09/22 05:54:14;;;;;;;;;;;22.10;52.10;;;;;;1524785;78;1948;-67
2023/09/22 05:56:16;;;;;;;;;;;22.10;52.10;;;;;;1523491;77;714;-68
2023/09/22 05:58:18;;;;;;;;;;;22.10;52.10;;;;;;1523884;76;1150;-67
2023/09/22 06:00:23;;;;;;;;;;;22.10;52.10;;;;;;1524159;77;772;-68
2023/09/22 06:02:24;;;;;;;;;;;22.20;52.10;;;;;;1518896;77;1032;-66
2023/09/22 06:04:29;;;;;;;;;;;22.20;52.10;;;;;;1517293;77;731;-69
2023/09/22 06:06:29;;;;;;;;;;;22.30;52.20;;;;;;1516428;77;1618;-67
2023/09/22 06:08:31;;;;;;;;;;;22.10;52.00;;;;;;1519652;76;1181;-69
2023/09/22 06:10:34;;;;;;;;;;;22.10;52.10;;;;;;1522926;76;1539;-68
2023/09/22 06:12:36;;;;;;;;;;;22.20;52.00;;;;;;1516299;77;1030;-68
2023/09/22 06:14:39;;;;;;;;;;;22.20;52.00;;;;;;1524297;76;1913;-67
2023/09/22 06:16:41;;;;;;;;;;;22.10;52.00;;;;;;1525652;77;667;-66
2023/09/22 06:18:43;;;;;;;;;;;22.10;52.10;;;;;;1517864;76;1132;-68
2023/09/22 06:20:45;;;;;;;;;;;22.10;52.00;;;;;;1519057;77;779;-68
2023/09/22 06:22:47;;;;;;;;;;;22.10;51.90;;;;;;1520050;77;780;-68
2023/09/22 06:24:50;;;;;;;;;;;22.20;52.10;;;;;;1517238;77;769;-68
2023/09/22 06:26:53;;;;;;;;;;;22.10;51.90;;;;;;1527331;76;819;-68
2023/09/22 06:28:54;;;;;;;;;;;22.10;52.00;;;;;;1523274;78;1139;-67
2023/09/22 06:30:59;;;;;;;;;;;22.10;52.00;;;;;;1524570;78;759;-69
2023/09/22 06:33:06;;;;;;;;;;;22.10;52.10;;;;;;1520152;78;766;-68
2023/09/22 06:35:07;;;;;;;;;;;22.10;52.10;;;;;;1521286;77;1914;-67
2023/09/22 06:37:09;;;;;;;;;;;22.10;52.10;;;;;;1516694;77;1664;-65
2023/09/22 06:39:11;;;;;;;;;;;22.10;52.10;;;;;;1521938;77;1196;-68
2023/09/22 06:41:14;;;;;;;;;;;22.20;52.10;;;;;;1524578;76;786;-69
2023/09/22 06:43:16;;;;;;;;;;;22.20;52.10;;;;;;1507967;78;984;-68
2023/09/22 06:45:18;;;;;;;;;;;22.10;52.10;;;;;;1521148;76;731;-68
2023/09/22 06:47:20;;;;;;;;;;;22.10;52.10;;;;;;1517035;77;798;-67
2023/09/22 06:49:24;;;;;;;;;;;22.10;52.10;;;;;;1519941;78;1122;-68
2023/09/22 06:51:27;;;;;;;;;;;22.10;52.10;;;;;;1521870;78;750;-68
2023/09/22 06:53:32;;;;;;;;;;;22.10;52.10;;;;;;1521932;77;727;-68
2023/09/22 06:55:33;;;;;;;;;;;22.10;52.10;;;;;;1522222;78;1941;-68
2023/09/22 06:57:36;;;;;;;;;;;22.20;52.10;;;;;;1522327;76;780;-68
2023/09/22 06:59:38;;;;;;;;;;;22.20;52.10;;;;;;1524353;77;729;-70
2023/09/22 07:01:40;;;;;;;;;;;22.20;52.10;;;;;;1521459;77;796;-67
2023/09/22 07:03:42;;;;;;;;;;;22.20;52.10;;;;;;1523800;77;741;-69
2023/09/22 07:05:45;;;;;;;;;;;22.20;52.10;;;;;;1516837;77;806;-69
2023/09/22 07:07:49;;;;;;;;;;;22.20;52.10;;;;;;1521741;78;1567;-68
2023/09/22 07:09:51;;;;;;;;;;;22.20;52.10;;;;;;1521665;77;707;-68
2023/09/22 07:11:53;;;;;;;;;;;22.20;52.10;;;;;;1523804;78;791;-67
2023/09/22 07:13:56;;;;;;;;;;;22.30;52.30;;;;;;1522571;77;751;-69
2023/09/22 07:15:58;;;;;;;;;;;22.20;52.10;;;;;;1524463;77;1910;-68
2023/09/22 07:18:01;;;;;;;;;;;22.20;52.10;;;;;;1524612;77;1149;-68
2023/09/22 07:20:09;;;;;;;;;;;22.20;52.20;;;;;;1525009;77;715;-68
2023/09/22 07:22:08;;;;;;;;;;;22.20;52.20;;;;;;1519801;77;1597;-66
2023/09/22 07:24:10;;;;;;;;;;;22.10;52.20;;;;;;1524300;78;778;-68
2023/09/22 07:26:11;;;;;;;;;;;22.10;52.20;;;;;;1522703;76;716;-68
2023/09/22 07:28:13;;;;;;;;;;;22.20;52.20;;;;;;1518115;76;1132;-68
2023/09/22 07:30:18;;;;;;;;;;;22.20;52.20;;;;;;1524477;77;802;-68
2023/09/22 07:32:19;;;;;;;;;;;22.20;52.30;;;;;;1519922;76;1683;-68
2023/09/22 07:34:21;;;;;;;;;;;22.10;52.20;;;;;;1525248;77;1944;-68
2023/09/22 07:36:23;;;;;;;;;;;22.20;52.30;;;;;;1519817;77;660;-67
2023/09/22 07:38:26;;;;;;;;;;;22.10;52.20;;;;;;1518683;77;1155;-68
2023/09/22 07:40:28;;;;;;;;;;;22.10;52.30;;;;;;1521684;77;711;-69
2023/09/22 07:42:31;;;;;;;;;;;22.10;52.30;;;;;;1523904;77;710;-68
2023/09/22 07:44:33;;;;;;;;;;;22.20;52.30;;;;;;1525041;78;845;-68
2023/09/22 07:46:35;;;;;;;;;;;22.10;52.30;;;;;;1524144;77;740;-67
2023/09/22 07:48:37;;;;;;;;;;;22.10;52.30;;;;;;1524802;76;1176;-67
2023/09/22 07:50:39;;;;;;;;;;;22.10;52.40;;;;;;1524757;76;725;-67
2023/09/22 07:52:43;;;;;;;;;;;22.10;52.40;;;;;;1520083;77;839;-68
2023/09/22 07:54:45;;;;;;;;;;;22.10;52.50;;;;;;1518316;77;2090;-68
2023/09/22 07:56:47;;;;;;;;;;;22.10;52.40;;;;;;1522514;78;894;-68
2023/09/22 07:58:49;;;;;;;;;;;22.10;52.50;;;;;;1522056;78;1151;-68
2023/09/22 08:00:52;;;;;;;;;;;22.10;52.50;;;;;;1524625;78;727;-68
2023/09/22 08:02:53;;;;;;;;;;;22.10;52.50;;;;;;1521945;77;1553;-68
2023/09/22 08:04:56;;;;;;;;;;;22.10;52.50;;;;;;1524354;77;779;-67
2023/09/22 08:06:59;;;;;;;;;;;22.10;52.60;;;;;;1516101;77;668;-68
2023/09/22 08:09:03;;;;;;;;;;;22.10;52.60;;;;;;1521952;77;1143;-67
2023/09/22 08:11:07;;;;;;;;;;;22.10;52.60;;;;;;1523099;77;903;-68
2023/09/22 08:13:09;;;;;;;;;;;22.10;52.60;;;;;;1524671;78;703;-68
2023/09/22 08:15:11;;;;;;;;;;;22.10;52.60;;;;;;1524814;77;1934;-68
2023/09/22 08:17:15;;;;;;;;;;;22.10;52.60;;;;;;1521124;77;733;-67
2023/09/22 08:19:17;;;;;;;;;;;22.10;52.70;;;;;;1523867;77;1703;-68
2023/09/22 08:21:20;;;;;;;;;;;22.10;52.60;;;;;;1523811;77;623;-68
2023/09/22 08:23:22;;;;;;;;;;;22.20;52.60;;;;;;1519241;78;796;-67
2023/09/22 08:25:24;;;;;;;;;;;22.20;52.70;;;;;;1522354;78;803;-67
2023/09/22 08:27:29;;;;;;;;;;;22.10;52.70;;;;;;1524495;78;746;-67
2023/09/22 08:29:29;;;;;;;;;;;22.10;52.70;;;;;;1519862;77;1678;-68
2023/09/22 08:31:31;;;;;;;;;;;22.10;52.80;;;;;;1524227;76;656;-68
2023/09/22 08:33:35;;;;;;;;;;;22.10;52.80;;;;;;1525274;77;737;-68
2023/09/22 08:35:39;;;;;;;;;;;22.10;52.80;;;;;;1524198;76;1917;-67
2023/09/22 08:37:43;;;;;;;;;;;22.30;53.00;;;;;;1524746;76;1714;-68
2023/09/22 08:39:45;;;;;;;;;;;22.10;52.90;;;;;;1515103;77;755;-67
2023/09/22 08:41:47;;;;;;;;;;;22.10;52.90;;;;;;1522264;77;754;-67
2023/09/22 08:43:49;;;;;;;;;;;22.10;52.90;;;;;;1523991;77;771;-69
2023/09/22 08:45:51;;;;;;;;;;;22.10;52.90;;;;;;1524783;77;744;-68
2023/09/22 08:47:53;;;;;;;;;;;22.10;52.90;;;;;;1510434;77;1180;-68
2023/09/22 08:49:55;;;;;;;;;;;22.10;52.90;;;;;;1527362;76;747;-68
2023/09/22 08:51:59;;;;;;;;;;;22.10;53.00;;;;;;1523323;76;738;-68
2023/09/22 08:54:00;;;;;;;;;;;22.10;52.90;;;;;;1525326;77;1842;-68
2023/09/22 08:56:04;;;;;;;;;;;22.10;52.90;;;;;;1518111;77;1908;-68
2023/09/22 08:58:06;;;;;;;;;;;22.20;52.90;;;;;;1522575;77;1131;-68
2023/09/22 09:00:12;;;;;;;;;;;22.10;52.90;;;;;;1520498;78;1587;-67
2023/09/22 09:02:14;;;;;;;;;;;22.10;52.90;;;;;;1524100;77;697;-68
2023/09/22 09:04:30;;;;;;;;;;;22.20;52.90;;;;;;1518128;77;726;-68
2023/09/22 09:06:34;;;;;;;;;;;22.20;52.90;;;;;;1519872;77;733;-69
2023/09/22 09:08:35;;;;;;;;;;;22.10;53.00;;;;;;1517162;76;1775;-67
2023/09/22 09:10:38;;;;;;;;;;;22.20;53.00;;;;;;1520646;77;716;-67
2023/09/22 09:12:47;;;;;;;;;;;22.10;53.10;;;;;;1522174;77;707;-67
2023/09/22 09:14:49;;;;;;;;;;;22.10;53.00;;;;;;1518794;78;796;-67
2023/09/22 09:16:51;;;;;;;;;;;22.10;53.10;;;;;;1490928;79;727;-68
2023/09/22 09:18:55;;;;;;;;;;;22.20;53.10;;;;;;1516031;77;1121;-68
2023/09/22 09:21:08;;;;;;;;;;;22.10;53.00;;;;;;1523017;77;1886;-67
2023/09/22 09:23:17;;;;;;;;;;;22.20;53.10;;;;;;1522394;78;729;-68
2023/09/22 09:25:19;;;;;;;;;;;22.10;53.10;;;;;;1523202;78;729;-66
2023/09/22 09:27:21;;;;;;;;;;;22.10;53.10;;;;;;1518125;76;708;-68
2023/09/22 09:29:29;;;;;;;;;;;22.10;53.10;;;;;;1521716;76;1127;-68
2023/09/22 09:31:45;;;;;;;;;;;22.10;53.00;;;;;;1516484;78;814;-67
2023/09/22 09:33:54;;;;;;;;;;;22.10;53.00;;;;;;1522146;77;746;-67
2023/09/22 09:35:54;;;;;;;;;;;22.10;53.10;;;;;;1521744;78;1940;-69
2023/09/22 09:38:02;;;;;;;;;;;22.10;53.10;;;;;;1516131;78;1140;-68
2023/09/22 09:40:10;;;;;;;;;;;22.10;53.10;;;;;;1522477;76;735;-65
2023/09/22 09:42:09;;;;;;;;;;;22.10;53.10;;;;;;1517255;78;1555;-68
2023/09/22 09:44:11;;;;;;;;;;;22.10;53.10;;;;;;1523056;76;741;-68
2023/09/22 09:46:13;;;;;;;;;;;22.10;53.10;;;;;;1517434;77;697;-68
2023/09/22 09:48:16;;;;;;;;;;;22.10;53.00;;;;;;1523608;78;1182;-68
2023/09/22 09:50:19;;;;;;;;;;;22.10;52.90;;;;;;1515545;77;731;-68
2023/09/22 09:52:28;;;;;;;;;;;22.20;52.90;;;;;;1524506;77;999;-68
2023/09/22 09:54:30;;;;;;;;;;;22.20;52.90;;;;;;1522734;78;780;-69
2023/09/22 09:56:32;;;;;;;;;;;22.10;52.80;;;;;;1517431;77;1937;-68
2023/09/22 09:58:34;;;;;;;;;;;22.10;52.80;;;;;;1517843;78;1131;-68
2023/09/22 10:00:36;;;;;;;;;;;22.20;52.60;;;;;;1524816;77;769;-68
2023/09/22 10:02:39;;;;;;;;;;;22.10;52.30;;;;;;1523727;76;787;-68
2023/09/22 10:04:41;;;;;;;;;;;22.10;52.40;;;;;;1525077;78;690;-68
2023/09/22 10:06:43;;;;;;;;;;;22.10;52.40;;;;;;1518255;77;725;-68
2023/09/22 10:08:45;;;;;;;;;;;22.10;52.30;;;;;;1521960;77;1154;-69
2023/09/22 10:10:47;;;;;;;;;;;22.10;52.30;;;;;;1524413;77;917;-69
2023/09/22 10:12:49;;;;;;;;;;;22.10;52.30;;;;;;1521412;78;702;-68
2023/09/22 10:14:53;;;;;;;;;;;22.10;52.30;;;;;;1522151;78;747;-69
2023/09/22 10:16:54;;;;;;;;;;;22.10;52.30;;;;;;1515062;77;1934;-68
2023/09/22 10:18:59;;;;;;;;;;;22.10;52.10;;;;;;1515934;77;1139;-69
2023/09/22 10:21:00;;;;;;;;;;;22.00;51.90;;;;;;1519687;76;1680;-68
2023/09/22 10:23:19;;;;;;;;;;;22.10;51.80;;;;;;1518403;78;835;-67
2023/09/22 10:25:21;;;;;;;;;;;22.00;51.80;;;;;;1523323;77;755;-67
2023/09/22 10:27:25;;;;;;;;;;;22.00;51.40;;;;;;1521247;78;783;-66
2023/09/22 10:29:37;;;;;;;;;;;22.00;51.50;;;;;;1515254;77;1614;-67
2023/09/22 10:31:41;;;;;;;;;;;22.00;51.50;;;;;;1522325;77;783;-69
2023/09/22 10:33:45;;;;;;;;;;;22.00;51.70;;;;;;1521462;77;1694;-69
2023/09/22 10:35:47;;;;;;;;;;;22.00;51.50;;;;;;1518317;78;1922;-66
2023/09/22 10:38:00;;;;;;;;;;;22.00;51.30;;;;;;1524860;76;1148;-68
2023/09/22 10:40:12;;;;;;;;;;;22.00;51.40;;;;;;1518688;76;834;-66
2023/09/22 10:42:14;;;;;;;;;;;22.00;51.30;;;;;;1523286;77;1544;-69
2023/09/22 10:44:16;;;;;;;;;;;22.00;51.30;;;;;;1519196;78;748;-67
2023/09/22 10:46:18;;;;;;;;;;;22.00;51.20;;;;;;1520708;78;757;-67
2023/09/22 10:48:20;;;;;;;;;;;22.00;51.20;;;;;;1524093;78;1183;-68
2023/09/22 10:50:30;;;;;;;;;;;22.00;51.20;;;;;;1514050;78;895;-67
2023/09/22 10:52:30;;;;;;;;;;;22.00;51.30;;;;;;1517951;77;1470;-68
2023/09/22 10:54:34;;;;;;;;;;;22.00;51.30;;;;;;1517121;78;774;-68
2023/09/22 10:56:36;;;;;;;;;;;22.00;51.30;;;;;;1523141;78;1920;-68
2023/09/22 10:58:38;;;;;;;;;;;22.00;51.30;;;;;;1517390;77;1160;-67
2023/09/22 11:00:45;;;;;;;;;;;22.00;51.30;;;;;;1524362;78;709;-67
2023/09/22 11:02:44;;;;;;;;;;;22.00;51.00;;;;;;1519985;78;1502;-70
2023/09/22 11:04:48;;;;;;;;;;;22.00;51.30;;;;;;1519836;76;664;-67
2023/09/22 11:06:50;;;;;;;;;;;22.00;51.40;;;;;;1520833;76;1483;-69
2023/09/22 11:08:52;;;;;;;;;;;22.00;51.20;;;;;;1524062;78;1191;-67
2023/09/22 11:10:56;;;;;;;;;;;22.00;51.30;;;;;;1520211;78;800;-67
2023/09/22 11:12:57;;;;;;;;;;;22.00;51.20;;;;;;1521424;77;697;-67
2023/09/22 11:15:00;;;;;;;;;;;22.00;51.10;;;;;;1524596;77;874;-67
2023/09/22 11:17:02;;;;;;;;;;;22.00;51.30;;;;;;1517837;77;1941;-67
2023/09/22 11:19:06;;;;;;;;;;;22.00;51.20;;;;;;1517775;77;1140;-68
2023/09/22 11:21:10;;;;;;;;;;;22.00;51.20;;;;;;1520084;78;1491;-66
2023/09/22 11:23:11;;;;;;;;;;;22.00;51.10;;;;;;1523188;78;810;-68
2023/09/22 11:25:13;;;;;;;;;;;22.00;51.00;;;;;;1523301;78;820;-68
2023/09/22 11:27:15;;;;;;;;;;;21.90;50.90;;;;;;1517203;76;841;-69
2023/09/22 11:29:17;;;;;;;;;;;22.00;51.10;;;;;;1520688;77;1142;-66
2023/09/22 11:31:19;;;;;;;;;;;22.00;51.00;;;;;;1519355;78;817;-68
2023/09/22 11:33:22;;;;;;;;;;;22.00;51.10;;;;;;1525226;77;758;-68
2023/09/22 11:35:29;;;;;;;;;;;22.00;51.20;;;;;;1521960;78;739;-69
2023/09/22 11:37:31;;;;;;;;;;;22.00;51.10;;;;;;1520936;78;1936;-68
2023/09/22 11:39:34;;;;;;;;;;;22.00;50.90;;;;;;1520945;78;1144;-68
2023/09/22 11:41:36;;;;;;;;;;;22.00;50.70;;;;;;1524065;78;709;-68
2023/09/22 11:43:41;;;;;;;;;;;22.00;50.70;;;;;;1522582;78;723;-67
2023/09/22 11:45:43;;;;;;;;;;;22.00;50.70;;;;;;1522342;78;802;-67
2023/09/22 11:47:45;;;;;;;;;;;22.00;50.70;;;;;;1521846;78;1315;-68
2023/09/22 11:49:46;;;;;;;;;;;22.00;50.70;;;;;;1524681;78;814;-69
2023/09/22 11:51:56;;;;;;;;;;;21.20;50.40;;;;;;1523696;78;676;-68
2023/09/22 11:53:58;;;;;;;;;;;22.00;50.90;;;;;;1521272;76;722;-68
2023/09/22 11:56:00;;;;;;;;;;;22.00;50.70;;;;;;1517522;78;1918;-68
2023/09/22 11:58:04;;;;;;;;;;;21.90;50.60;;;;;;1520413;77;1185;-68
2023/09/22 12:00:08;;;;;;;;;;;21.90;50.90;;;;;;1521340;77;1706;-68
2023/09/22 12:02:09;;;;;;;;;;;21.90;50.80;;;;;;1520187;77;1621;-68
2023/09/22 12:04:11;;;;;;;;;;;22.00;50.70;;;;;;1519229;77;751;-68
2023/09/22 12:06:15;;;;;;;;;;;21.90;50.50;;;;;;1521351;78;725;-69
2023/09/22 12:08:16;;;;;;;;;;;21.90;50.70;;;;;;1523056;78;1159;-67
2023/09/22 12:10:19;;;;;;;;;;;21.90;50.70;;;;;;1521963;78;804;-68
2023/09/22 12:12:21;;;;;;;;;;;21.90;50.70;;;;;;1521661;78;753;-68